Latest Weather Observations for Naracoorte

IDS60801

Issued at 3:01 pm CDT Thursday 11 February 2016 (issued every 30 minutes, with the page automatically refreshed every 10 minutes)

About weather observations | Map of weather stations | Latest weather observations for SA | Other Formats
Station Details ID: 026099 Name: NARACOORTE AERODROME Lat: -36.98 Lon: 140.73 Height: 49.72 m
Data from the previous 72 hours. | See also: Recent months at Naracoorte
Date/Time
CDT
Temp
°C
App
Temp
°C
Dew
Point
Rel
Hum
%
Delta-T
°C
Wind Press
QNH
hPa
Press
MSL
hPa
Rain
since 9 am
mm
Dir
 
Spd
km/h
Gust
km/h
Spd
kts
Gust
kts
11/03:00pm 29.0 24.8 9.7 30 10.8 S 22 35 12 19 1014.5 1014.4 0.0
11/02:30pm 28.5 24.9 9.7 31 10.5 S 19 35 10 19 1014.6 1014.5 0.0
11/02:00pm 28.3 25.0 10.9 34 9.9 SSW 19 28 10 15 1015.1 1015.0 0.0
11/01:30pm 27.3 23.8 10.1 34 9.6 SSW 19 32 10 17 1015.6 1015.5 0.0
11/01:00pm 27.1 23.9 11.2 37 9.1 SSW 19 28 10 15 1015.7 1015.6 0.0
11/12:30pm 26.5 23.8 11.8 40 8.4 S 17 28 9 15 1015.8 1015.7 0.0
11/12:00pm 25.2 22.2 12.4 45 7.4 S 20 28 11 15 1016.2 1016.1 0.0
11/11:30am 24.7 21.2 12.3 46 7.1 S 22 33 12 18 1016.5 1016.4 0.0
11/11:00am 23.3 20.3 12.0 49 6.4 SE 19 28 10 15 1016.7 1016.6 0.0
11/10:30am 22.4 18.8 11.8 51 6.0 SE 22 28 12 15 1017.0 1016.8 0.0
11/10:00am 22.2 18.5 12.7 55 5.4 SSE 24 30 13 16 1017.2 1017.0 0.0
11/09:30am 21.0 17.0 12.9 60 4.6 SE 26 33 14 18 1017.5 1017.3 0.0
11/09:00am 19.3 16.1 13.0 67 3.6 SSE 22 28 12 15 1017.7 1017.5 0.0
11/08:30am 17.0 15.1 13.1 78 2.2 S 15 17 8 9 1017.4 1017.2 0.0
11/08:00am 14.5 12.8 12.4 87 1.1 SSE 13 17 7 9 1017.1 1016.9 0.0
11/07:30am 12.4 9.9 11.1 92 0.7 S 15 17 8 9 1017.0 1016.8 0.0
11/07:00am 10.7 8.2 9.8 94 0.5 SSE 13 13 7 7 1016.6 1016.5 0.0
11/06:30am 10.5 7.6 9.7 95 0.4 SSE 15 17 8 9 1016.3 1016.2 0.0
11/06:00am 10.2 6.8 9.3 94 0.4 S 17 17 9 9 1016.0 1015.9 0.0
11/05:30am 10.6 7.7 9.7 94 0.5 S 15 17 8 9 1015.6 1015.5 0.0
11/05:00am 10.8 8.0 9.9 94 0.5 SSE 15 17 8 9 1015.4 1015.3 0.0
11/04:30am 10.6 7.7 9.5 93 0.6 S 15 17 8 9 1015.4 1015.3 0.0
11/04:00am 10.7 7.8 9.5 92 0.6 S 15 17 8 9 1015.4 1015.3 0.0
11/03:30am 11.1 8.6 9.7 91 0.7 SSE 13 17 7 9 1015.2 1015.1 0.0
11/03:00am 11.5 9.1 9.9 90 0.8 SSE 13 15 7 8 1015.1 1015.0 0.0
11/02:30am 12.0 9.6 10.2 89 0.9 S 13 17 7 9 1015.4 1015.3 0.0
11/02:00am 12.6 10.7 10.5 87 1.1 S 11 13 6 7 1015.7 1015.6 0.0
11/01:30am 13.3 10.8 11.0 86 1.2 SSE 15 17 8 9 1015.7 1015.6 0.0
11/01:00am 13.8 11.3 11.1 84 1.4 SSE 15 17 8 9 1015.9 1015.8 0.0
11/12:30am 14.3 11.5 11.3 82 1.6 SSE 17 19 9 10 1016.0 1015.9 0.0
11/12:00am 14.8 12.4 11.4 80 1.8 SSE 15 19 8 10 1016.1 1016.0 0.0
 
Date/Time
CDT
Temp
°C
App
Temp
°C
Dew
Point
Rel
Hum
%
Delta-T
°C
Wind Press
QNH
hPa
Press
MSL
hPa
Rain
since 9 am
mm
Dir
 
Spd
km/h
Gust
km/h
Spd
kts
Gust
kts
10/11:30pm 15.5 12.8 11.7 78 2.1 SSE 17 20 9 11 1016.0 1015.9 0.0
10/11:00pm 16.1 13.0 11.7 75 2.4 SSE 19 22 10 12 1016.1 1016.0 0.0
10/10:30pm 16.9 12.8 11.6 71 2.9 S 24 30 13 16 1016.1 1016.0 0.0
10/10:00pm 17.6 12.8 11.6 68 3.3 S 28 33 15 18 1015.9 1015.8 0.0
10/09:30pm 18.5 13.2 11.3 63 3.9 S 30 37 16 20 1015.6 1015.5 0.0
10/09:00pm 19.8 14.9 11.3 58 4.7 S 28 37 15 20 1015.3 1015.2 0.0
10/08:30pm 21.1 17.2 10.9 52 5.6 S 22 30 12 16 1015.2 1015.1 0.0
10/08:00pm 23.1 17.9 10.2 44 7.1 S 28 35 15 19 1014.8 1014.7 0.0
10/07:30pm 25.2 18.8 8.7 35 8.9 S 32 37 17 20 1014.4 1014.3 0.0
10/07:00pm 26.7 20.0 7.2 29 10.4 S 32 39 17 21 1014.0 1013.9 0.0
10/06:30pm 27.9 20.7 6.1 25 11.4 S 33 43 18 23 1013.7 1013.6 0.0
10/06:00pm 29.7 22.9 5.1 21 12.8 S 30 39 16 21 1013.4 1013.3 0.0
10/05:30pm 29.9 23.4 6.5 23 12.5 SSE 30 39 16 21 1013.2 1013.1 0.0
10/05:00pm 30.7 25.2 5.9 21 13.2 SSW 24 35 13 19 1013.0 1012.9 0.0
10/04:30pm 30.8 26.3 6.0 21 13.2 S 19 26 10 14 1013.0 1012.9 0.0
10/04:00pm 30.4 25.5 7.0 23 12.6 S 22 32 12 17 1013.1 1013.0 0.0
10/03:30pm 30.2 26.0 7.4 24 12.4 S 19 30 10 16 1013.3 1013.2 0.0
10/03:00pm 30.3 25.2 7.5 24 12.4 S 24 33 13 18 1013.6 1013.5 0.0
10/02:30pm 29.1 24.9 8.2 27 11.4 S 20 30 11 16 1014.0 1013.9 0.0
10/02:00pm 28.4 23.9 8.7 29 10.8 SSE 22 33 12 18 1014.3 1014.2 0.0
10/01:30pm 28.2 24.3 9.5 31 10.4 SSE 20 28 11 15 1014.5 1014.4 0.0
10/01:00pm 26.9 23.0 9.3 33 9.7 SSE 20 30 11 16 1014.9 1014.8 0.0
10/12:30pm 26.0 22.4 10.6 38 8.6 SSE 20 30 11 16 1015.2 1015.1 0.0
10/12:00pm 24.6 20.1 10.1 40 8.0 SSE 24 32 13 17 1015.6 1015.5 0.0
10/11:30am 23.7 19.1 11.1 45 7.0 SSE 26 35 14 19 1015.9 1015.8 0.0
10/11:00am 22.7 17.4 8.4 40 7.6 SSE 26 35 14 19 1016.2 1016.1 0.0
10/10:30am 21.0 17.6 11.3 54 5.4 S 20 28 11 15 1016.5 1016.4 0.0
10/10:00am 19.2 17.4 12.2 64 3.9 SSE 13 17 7 9 1016.5 1016.4 0.0
10/09:30am 17.8 16.5 12.5 71 2.9 S 11 17 6 9 1016.4 1016.3 0.0
10/09:00am 16.2 14.5 12.4 78 2.1 SE 13 19 7 10 1016.5 1016.4 -
10/08:30am 13.8 11.1 11.7 87 1.1 S 17 20 9 11 1016.5 1016.4 -
10/08:00am 12.4 11.1 11.3 93 0.6 S 9 48 5 26 1016.2 1016.1 -
10/07:30am 10.7 9.6 9.9 95 0.4 SSE 6 7 3 4 1015.8 1015.7 -
10/07:00am 9.1 7.4 8.5 96 0.3 SSE 7 11 4 6 1015.8 1015.7 -
10/06:30am 8.6 6.1 8.0 96 0.3 SSE 11 13 6 7 1015.6 1015.5 -
10/06:00am 8.3 5.3 7.5 95 0.4 SSE 13 15 7 8 1015.5 1015.4 -
10/05:30am 8.6 5.6 7.8 95 0.4 SSE 13 15 7 8 1015.3 1015.2 -
10/05:00am 8.6 6.4 7.7 94 0.4 SSE 9 13 5 7 1014.9 1014.8 -
10/04:30am 9.1 6.9 8.0 93 0.5 SSE 9 11 5 6 1014.7 1014.6 -
10/04:00am 9.6 6.8 8.5 93 0.5 SSE 13 15 7 8 1014.7 1014.6 -
10/03:30am 10.4 8.2 9.2 92 0.6 SSE 11 13 6 7 1014.9 1014.8 -
10/03:00am 11.0 8.5 9.8 92 0.6 SSE 13 15 7 8 1015.2 1015.1 0.0
10/02:30am 11.3 8.9 9.9 91 0.7 SSE 13 17 7 9 1015.5 1015.4 -
10/02:00am 11.2 8.7 9.6 90 0.8 S 13 15 7 8 1015.7 1015.6 -
10/01:30am 11.6 9.1 9.7 88 1.0 S 13 15 7 8 1015.8 1015.7 -
10/01:00am 12.4 9.6 10.1 86 1.2 S 15 17 8 9 1015.9 1015.8 -
10/12:30am 13.0 10.7 10.5 85 1.3 S 13 15 7 8 1016.3 1016.2 -
10/12:00am 14.0 11.5 11.0 82 1.6 S 15 19 8 10 1016.5 1016.4 -
 
Date/Time
CDT
Temp
°C
App
Temp
°C
Dew
Point
Rel
Hum
%
Delta-T
°C
Wind Press
QNH
hPa
Press
MSL
hPa
Rain
since 9 am
mm
Dir
 
Spd
km/h
Gust
km/h
Spd
kts
Gust
kts
09/11:30pm 14.6 12.5 11.2 80 1.8 SSE 13 15 7 8 1016.3 1016.2 -
09/11:00pm 15.6 12.8 11.4 76 2.3 S 17 20 9 11 1016.7 1016.6 -
09/10:30pm 16.7 13.5 11.8 73 2.7 SSE 20 24 11 13 1016.7 1016.6 -
09/10:00pm 17.8 13.1 12.0 69 3.2 S 28 35 15 19 1016.9 1016.7 -
09/09:30pm 18.9 14.2 11.9 64 3.9 S 28 32 15 17 1016.6 1016.5 -
09/09:00pm 20.1 15.3 11.8 59 4.6 S 28 35 15 19 1016.3 1016.2 0.0
09/08:30pm 21.8 16.7 10.6 49 6.1 S 28 37 15 20 1016.1 1016.0 -
09/08:00pm 24.3 18.0 9.1 38 8.2 SSE 32 39 17 21 1015.9 1015.8 -
09/07:30pm 26.8 20.5 7.3 29 10.4 SSE 30 37 16 20 1015.9 1015.8 -
09/07:00pm 28.1 21.3 7.9 28 10.9 SSE 33 39 18 21 1015.7 1015.6 -
09/06:30pm 29.5 22.1 8.5 27 11.6 SSE 37 44 20 24 1015.4 1015.3 -
09/06:04pm 30.7 26.6 7.8 24 12.6 S 19 43 10 23 1015.2 1015.1 -
09/06:00pm 31.9 28.3 3.0 16 14.7 SSW 11 19 6 10 1015.3 1015.2 -
09/05:30pm 31.7 27.2 1.9 15 14.9 SSE 15 20 8 11 1015.4 1015.3 -
09/05:00pm 32.0 28.2 3.9 17 14.5 S 13 28 7 15 1015.6 1015.5 -
09/04:30pm 32.0 28.0 3.1 16 14.7 SSE 13 22 7 12 1016.0 1015.9 -
09/04:00pm 31.5 26.5 3.5 17 14.4 SSE 19 30 10 16 1016.4 1016.3 -
09/03:30pm 30.6 26.6 2.8 17 14.0 SE 13 22 7 12 1016.9 1016.7 -
09/03:00pm 31.4 26.7 3.4 17 14.3 SE 17 26 9 14 1017.2 1017.0 -
09/02:30pm 30.9 27.7 5.3 20 13.5 SSE 11 19 6 10 1017.6 1017.4 -
09/02:00pm 29.7 26.5 5.1 21 12.8 SSE 11 19 6 10 1018.0 1017.8 -
09/01:30pm 29.5 26.0 5.6 22 12.5 SSW 13 24 7 13 1018.3 1018.1 -
09/01:00pm 28.7 25.8 6.7 25 11.7 SSW 11 17 6 9 1018.6 1018.4 -
09/12:00pm 26.5 25.2 9.8 35 9.2 S 7 15 4 8 1019.6 1019.4 0.0
09/11:30am 25.4 23.4 10.1 38 8.5 SSE 11 19 6 10 1020.0 1019.8 0.0
09/11:00am 23.8 21.4 10.1 42 7.5 S 13 19 7 10 1020.3 1020.1 0.0
09/10:30am 22.8 20.5 10.3 45 6.8 SE 13 19 7 10 1020.6 1020.4 0.0
09/10:00am 21.5 19.5 11.5 53 5.6 SSE 13 22 7 12 1020.7 1020.5 0.0
09/09:30am 19.9 17.9 11.4 58 4.7 ESE 13 20 7 11 1021.0 1020.8 0.0
09/09:00am 18.4 15.8 11.9 66 3.6 SE 17 22 9 12 1021.1 1020.9 0.0
09/08:30am 16.1 13.8 11.9 76 2.3 SE 15 19 8 10 1021.2 1021.0 0.0
09/08:00am 14.8 13.5 12.5 86 1.3 SSE 11 17 6 9 1021.3 1021.1 0.0
09/07:30am 12.3 10.3 11.4 94 0.5 SSE 13 17 7 9 1021.1 1020.9 0.0
09/07:00am 10.8 9.1 10.0 95 0.4 SSE 9 11 5 6 1021.0 1020.8 0.0
09/06:30am 10.0 6.6 9.2 95 0.4 SSE 17 17 9 9 1020.9 1020.7 0.0
09/06:00am 10.1 7.2 9.5 96 0.3 SSE 15 17 8 9 1020.7 1020.5 0.0
09/05:30am 9.8 6.4 9.0 95 0.4 SSE 17 19 9 10 1020.7 1020.5 0.0
09/05:00am 9.9 7.6 9.0 94 0.4 SSE 11 13 6 7 1020.7 1020.5 0.0
09/04:30am 10.0 7.7 9.1 94 0.4 S 11 13 6 7 1020.7 1020.5 0.0
09/04:00am 10.7 8.6 9.6 93 0.6 SSE 11 13 6 7 1020.9 1020.7 0.0
09/03:30am 11.2 8.5 10.3 94 0.5 SSE 15 17 8 9 1020.9 1020.7 0.0
09/03:00am 11.2 8.0 10.1 93 0.6 SSE 17 17 9 9 1021.0 1020.8 0.0
09/02:30am 11.6 8.9 10.3 92 0.7 S 15 17 8 9 1021.2 1021.0 0.0
09/02:00am 12.3 9.8 10.9 91 0.7 S 15 17 8 9 1021.4 1021.2 0.0
09/01:30am 12.4 10.3 11.0 91 0.7 SSE 13 15 7 8 1021.6 1021.4 0.0
09/01:00am 13.0 10.5 11.2 89 1.0 SSE 15 17 8 9 1021.9 1021.7 0.0
09/12:30am 13.9 12.0 11.9 88 1.1 SSE 13 17 7 9 1022.1 1021.9 0.0
09/12:00am 14.7 12.2 12.2 85 1.4 SSE 17 22 9 12 1022.2 1022.0 0.0
 
Date/Time
CDT
Temp
°C
App
Temp
°C
Dew
Point
Rel
Hum
%
Delta-T
°C
Wind Press
QNH
hPa
Press
MSL
hPa
Rain
since 9 am
mm
Dir
 
Spd
km/h
Gust
km/h
Spd
kts
Gust
kts
08/11:30pm 15.3 12.3 12.4 83 1.6 SSE 20 24 11 13 1022.3 1022.1 0.0
08/11:00pm 16.1 12.8 12.7 80 1.9 SSE 22 28 12 15 1022.5 1022.3 0.0
08/10:30pm 16.8 12.7 12.7 77 2.3 SSE 26 32 14 17 1022.5 1022.3 0.0
08/10:00pm 17.6 12.2 12.3 71 2.9 SSE 32 43 17 23 1022.4 1022.2 0.0
08/09:30pm 18.2 13.7 11.5 65 3.7 SSE 26 32 14 17 1022.2 1022.0 0.0
08/09:00pm 19.6 14.8 11.6 60 4.4 SSE 28 33 15 18 1021.8 1021.6 0.0
08/08:30pm 20.4 14.7 11.3 56 5.0 S 32 37 17 20 1021.4 1021.2 0.0
08/08:00pm 21.9 15.6 11.0 50 6.0 S 35 44 19 24 1020.9 1020.7 0.0
08/07:30pm 23.8 17.0 10.8 44 7.2 S 37 52 20 28 1020.6 1020.4 0.0
08/07:00pm 25.6 18.2 9.8 37 8.7 S 39 46 21 25 1020.0 1019.8 0.0
08/06:30pm 27.1 19.9 9.0 32 9.9 S 37 50 20 27 1019.8 1019.6 0.0
08/06:00pm 28.0 20.8 7.8 28 10.9 S 35 44 19 24 1019.6 1019.4 0.0
08/05:30pm 28.9 22.1 6.9 25 11.7 S 32 39 17 21 1019.8 1019.6 0.0
08/05:00pm 29.1 23.2 7.7 26 11.6 SSE 28 39 15 21 1019.9 1019.7 0.0
08/04:48pm 30.2 24.6 8.6 26 12.0 S 28 54 15 29 1019.9 1019.7 0.0
08/04:30pm 29.3 23.1 7.8 26 11.7 SSE 30 39 16 21 1020.0 1019.8 0.0
08/04:00pm 29.7 25.1 8.2 26 11.8 SSE 22 39 12 21 1020.2 1020.0 0.0
08/03:30pm 29.0 23.5 7.6 26 11.6 S 26 35 14 19 1020.4 1020.2 0.0

Other Formats:

Comma delimited format used in spreadsheet applications
http://www.bom.gov.au/fwo/IDS60801/IDS60801.94820.axf

JavaScript Object Notation format (JSON) in row-major order
http://www.bom.gov.au/fwo/IDS60801/IDS60801.94820.json